Time;durP1;ratioP1;P1;durP2;ratioP2;P2;SDS_P1;SDS_P2;PMS_P1;PMS_P2;Temp;Humidity;BMP_temperature;BMP_pressure;BME280_temperature;BME280_humidity;BME280_pressure;Samples;Min_cycle;Max_cycle;Signal;HPM_P1;HPM_P2
2024/02/04 00:01:54;;;;;;;12.50;2.20;;;21.40;52.90;;;;;;5059845;28;20112;-62
2024/02/04 00:04:20;;;;;;;13.00;2.83;;;21.20;53.30;;;;;;5058461;28;20077;-63
2024/02/04 00:06:46;;;;;;;21.40;2.67;;;20.90;53.50;;;;;;5058410;28;20079;-63
2024/02/04 00:09:13;;;;;;;12.20;3.30;;;20.70;54.20;;;;;;5056381;28;20431;-62
2024/02/04 00:11:39;;;;;;;12.30;3.05;;;20.60;54.30;;;;;;5059461;28;20157;-66
2024/02/04 00:14:06;;;;;;;10.55;2.15;;;20.40;54.20;;;;;;5059598;28;20082;-62
2024/02/04 00:16:32;;;;;;;10.25;1.95;;;20.30;54.20;;;;;;5059757;28;20074;-59
2024/02/04 00:18:59;;;;;;;13.13;2.70;;;20.20;54.30;;;;;;5058414;28;20105;-61
2024/02/04 00:21:25;;;;;;;10.02;1.98;;;20.10;54.90;;;;;;5058617;28;20081;-60
2024/02/04 00:23:52;;;;;;;14.73;2.90;;;20.00;55.20;;;;;;5056255;28;20177;-60
2024/02/04 00:26:18;;;;;;;16.98;3.67;;;19.90;54.60;;;;;;5062921;28;20137;-60
2024/02/04 00:28:45;;;;;;;13.23;3.40;;;19.80;55.30;;;;;;5061152;28;20180;-61
2024/02/04 00:31:11;;;;;;;11.48;3.15;;;19.70;55.50;;;;;;5062011;28;20521;-61
2024/02/04 00:33:38;;;;;;;14.45;3.88;;;19.60;55.90;;;;;;5057398;28;20081;-60
2024/02/04 00:36:05;;;;;;;6.88;3.05;;;19.50;56.00;;;;;;5059302;28;20069;-61
2024/02/04 00:38:31;;;;;;;19.00;7.85;;;19.40;56.30;;;;;;5060193;28;20123;-60
2024/02/04 00:40:58;;;;;;;18.67;7.20;;;19.40;56.40;;;;;;5063580;28;20163;-60
2024/02/04 00:43:25;;;;;;;24.20;9.50;;;19.40;56.60;;;;;;5059213;28;20167;-61
2024/02/04 00:45:52;;;;;;;31.92;11.25;;;19.40;56.80;;;;;;5056907;28;20543;-60
2024/02/04 00:48:18;;;;;;;25.52;10.40;;;19.40;57.10;;;;;;5049888;28;20129;-60
2024/02/04 00:50:45;;;;;;;23.15;6.13;;;19.50;57.40;;;;;;5059212;28;20230;-61
2024/02/04 00:53:12;;;;;;;23.73;5.07;;;19.50;57.30;;;;;;5061739;28;20123;-60
2024/02/04 00:55:39;;;;;;;24.65;5.15;;;19.50;58.40;;;;;;5060443;28;20164;-61
2024/02/04 00:58:05;;;;;;;38.05;7.20;;;19.50;58.30;;;;;;5063414;28;20105;-60
2024/02/04 01:00:32;;;;;;;27.35;5.70;;;19.30;58.70;;;;;;5058920;28;20073;-60
2024/02/04 01:02:58;;;;;;;40.13;5.95;;;19.20;59.00;;;;;;5056109;28;20081;-60
2024/02/04 01:05:25;;;;;;;31.30;6.00;;;19.10;59.40;;;;;;5058708;28;20105;-59
2024/02/04 01:07:51;;;;;;;33.00;7.72;;;19.00;59.70;;;;;;5057436;28;20101;-59
2024/02/04 01:10:18;;;;;;;27.38;7.10;;;19.00;59.90;;;;;;5058727;28;20084;-61
2024/02/04 01:12:45;;;;;;;37.58;14.88;;;18.90;60.30;;;;;;5059173;28;20171;-61
2024/02/04 01:15:11;;;;;;;32.25;11.07;;;18.80;60.50;;;;;;5057628;28;20184;-61
2024/02/04 01:17:38;;;;;;;27.10;8.25;;;18.80;61.00;;;;;;5061031;28;20073;-60
2024/02/04 01:20:05;;;;;;;22.45;6.03;;;18.70;61.50;;;;;;5057933;28;20093;-61
2024/02/04 01:22:32;;;;;;;30.30;6.53;;;18.60;61.90;;;;;;5060315;28;20073;-59
2024/02/04 01:24:59;;;;;;;28.38;6.90;;;18.50;62.30;;;;;;5059053;28;20103;-61
2024/02/04 01:27:25;;;;;;;40.88;10.48;;;18.40;62.50;;;;;;5059338;28;20085;-60
2024/02/04 01:29:53;;;;;;;35.47;9.88;;;18.30;63.10;;;;;;5060244;28;20105;-60
2024/02/04 01:32:19;;;;;;;25.67;7.10;;;18.30;64.00;;;;;;5059744;28;20065;-61
2024/02/04 01:34:46;;;;;;;39.03;6.53;;;18.20;65.00;;;;;;5059429;28;20077;-60
2024/02/04 01:37:13;;;;;;;30.08;6.45;;;18.20;66.20;;;;;;5061726;28;20088;-60
2024/02/04 01:39:40;;;;;;;27.58;6.10;;;18.10;67.00;;;;;;5056638;28;20081;-60
2024/02/04 01:42:06;;;;;;;29.17;6.72;;;18.10;67.70;;;;;;5057738;28;20081;-60
2024/02/04 01:44:33;;;;;;;24.42;6.85;;;18.10;68.00;;;;;;5062510;28;20448;-62
2024/02/04 01:47:00;;;;;;;40.58;8.15;;;18.00;68.50;;;;;;5059039;28;20102;-61
2024/02/04 01:49:26;;;;;;;50.80;10.30;;;17.90;69.60;;;;;;5063429;28;20559;-62
2024/02/04 01:51:54;;;;;;;39.85;12.43;;;17.90;70.50;;;;;;5062489;28;20122;-61
2024/02/04 01:54:24;;;;;;;37.78;10.93;;;17.90;70.40;;;;;;5062505;28;20120;-64
2024/02/04 01:56:51;;;;;;;39.05;10.82;;;17.90;71.30;;;;;;5061821;28;20077;-61
2024/02/04 01:59:20;;;;;;;38.58;10.43;;;17.80;70.80;;;;;;5065020;28;20088;-62
2024/02/04 02:01:47;;;;;;;38.17;10.27;;;17.80;70.80;;;;;;5062887;28;20166;-62
2024/02/04 02:04:14;;;;;;;41.08;9.02;;;17.80;71.30;;;;;;5063325;28;20070;-63
2024/02/04 02:06:42;;;;;;;44.22;9.38;;;17.70;71.70;;;;;;5063464;28;20077;-63
2024/02/04 02:09:12;;;;;;;38.63;10.02;;;17.70;71.70;;;;;;5062740;28;20179;-65
2024/02/04 02:11:46;;;;;;;33.58;10.95;;;17.70;72.00;;;;;;5061557;28;20975;-63
2024/02/04 02:14:23;;;;;;;36.28;8.65;;;17.70;72.00;;;;;;5063405;28;20077;-62
2024/02/04 02:16:50;;;;;;;40.97;8.50;;;17.70;72.00;;;;;;5059533;28;20528;-63
2024/02/04 02:19:35;;;;;;;37.67;8.75;;;17.60;72.40;;;;;;5059390;28;20436;-62
2024/02/04 02:22:25;;;;;;;34.08;8.32;;;17.60;72.90;;;;;;5060464;28;20124;-62
2024/02/04 02:24:52;;;;;;;35.15;9.25;;;17.60;73.20;;;;;;5062422;28;20073;-63
2024/02/04 02:27:19;;;;;;;37.60;9.85;;;17.60;73.50;;;;;;5062153;28;20519;-62
2024/02/04 02:29:45;;;;;;;37.92;10.75;;;17.50;73.90;;;;;;5061519;28;20088;-63
2024/02/04 02:32:12;;;;;;;40.90;10.32;;;17.50;74.30;;;;;;5062983;28;20077;-63
2024/02/04 02:34:41;;;;;;;53.03;11.10;;;17.40;74.40;;;;;;5062369;28;20109;-64
2024/02/04 02:37:37;;;;;;;42.00;10.48;;;17.30;74.90;;;;;;5061957;28;20081;-66
2024/02/04 02:40:30;;;;;;;42.70;10.70;;;17.30;75.30;;;;;;5059678;28;20092;-64
2024/02/04 02:42:59;;;;;;;42.03;11.95;;;17.30;75.10;;;;;;5041880;28;20073;-64
2024/02/04 02:45:27;;;;;;;46.13;11.70;;;17.20;75.20;;;;;;5061808;28;20196;-61
2024/02/04 02:47:55;;;;;;;46.05;14.20;;;17.20;75.60;;;;;;5064396;28;20136;-62
2024/02/04 02:50:22;;;;;;;36.60;13.02;;;17.20;75.80;;;;;;5064176;28;20073;-64
2024/02/04 02:52:48;;;;;;;33.22;10.85;;;17.20;75.50;;;;;;5063865;28;20073;-62
2024/02/04 02:55:15;;;;;;;41.42;11.40;;;17.10;75.10;;;;;;5061200;28;20081;-62
2024/02/04 02:57:42;;;;;;;39.47;12.55;;;17.10;74.80;;;;;;5059992;28;20081;-64
2024/02/04 03:00:09;;;;;;;35.70;10.88;;;17.10;75.10;;;;;;5058932;28;20084;-63
2024/02/04 03:02:35;;;;;;;34.05;11.55;;;17.10;74.60;;;;;;5060654;28;20085;-63
2024/02/04 03:05:02;;;;;;;33.05;11.68;;;17.00;75.00;;;;;;5062967;28;20155;-63
2024/02/04 03:07:28;;;;;;;41.35;10.70;;;17.00;75.90;;;;;;5060065;28;20129;-64
2024/02/04 03:09:54;;;;;;;36.72;12.05;;;16.90;76.40;;;;;;5062613;28;20069;-62
2024/02/04 03:12:21;;;;;;;31.42;10.40;;;16.90;78.20;;;;;;5064525;28;20085;-64
2024/02/04 03:14:47;;;;;;;39.97;9.52;;;16.80;78.60;;;;;;5062083;28;20169;-62
2024/02/04 03:17:14;;;;;;;29.02;8.52;;;16.80;80.30;;;;;;5062308;28;20078;-64
2024/02/04 03:19:40;;;;;;;34.70;7.85;;;16.80;81.70;;;;;;5062880;28;20084;-64
2024/02/04 03:22:07;;;;;;;28.17;7.85;;;16.80;83.10;;;;;;5061844;28;20595;-61
2024/02/04 03:24:33;;;;;;;20.80;7.53;;;16.80;84.20;;;;;;5059662;28;20077;-61
2024/02/04 03:27:01;;;;;;;31.45;7.05;;;16.80;85.10;;;;;;5058873;28;20114;-62
2024/02/04 03:29:28;;;;;;;25.67;6.75;;;16.70;86.00;;;;;;5060509;28;20105;-63
2024/02/04 03:31:56;;;;;;;27.00;6.65;;;16.70;87.60;;;;;;5061021;28;20086;-66
2024/02/04 03:34:23;;;;;;;21.58;6.32;;;16.60;88.80;;;;;;5057922;28;20157;-62
2024/02/04 03:36:49;;;;;;;23.20;5.72;;;16.60;90.40;;;;;;5057569;28;20087;-63
2024/02/04 03:39:16;;;;;;;21.67;5.65;;;16.60;91.10;;;;;;5059742;28;20173;-59
2024/02/04 03:41:42;;;;;;;32.47;6.07;;;16.50;92.10;;;;;;5058291;28;20804;-63
2024/02/04 03:44:09;;;;;;;31.77;6.10;;;16.50;93.00;;;;;;5056901;28;20075;-66
2024/02/04 03:46:36;;;;;;;20.88;5.45;;;16.50;93.50;;;;;;5059588;28;20125;-62
2024/02/04 03:49:02;;;;;;;23.23;5.40;;;16.40;94.40;;;;;;5059585;28;20575;-63
2024/02/04 03:51:29;;;;;;;20.48;5.55;;;16.40;95.30;;;;;;5060198;28;20458;-66
2024/02/04 03:53:55;;;;;;;23.40;4.20;;;16.40;96.10;;;;;;5059088;28;20084;-63
2024/02/04 03:56:22;;;;;;;17.85;4.85;;;16.30;96.90;;;;;;5060322;28;20085;-65
2024/02/04 03:58:48;;;;;;;20.90;5.40;;;16.20;97.80;;;;;;5060023;28;20080;-61
2024/02/04 04:01:15;;;;;;;22.48;6.05;;;16.20;98.60;;;;;;5058377;28;20595;-62
2024/02/04 04:03:42;;;;;;;25.85;6.30;;;16.20;99.20;;;;;;5060201;28;20083;-62
2024/02/04 04:06:09;;;;;;;18.80;6.53;;;16.20;99.80;;;;;;5058366;28;20076;-62
2024/02/04 04:08:37;;;;;;;17.65;5.80;;;16.20;99.90;;;;;;5060095;28;20105;-63
2024/02/04 04:11:04;;;;;;;13.68;4.70;;;16.20;99.90;;;;;;5060802;28;20066;-62
2024/02/04 04:13:32;;;;;;;13.50;4.18;;;16.20;99.90;;;;;;5057979;28;20093;-61
2024/02/04 04:15:58;;;;;;;11.48;3.40;;;16.20;99.90;;;;;;5059489;28;20156;-68
2024/02/04 04:18:25;;;;;;;8.77;3.72;;;16.20;99.90;;;;;;5058468;28;20109;-62
2024/02/04 04:20:51;;;;;;;15.95;3.78;;;16.10;99.90;;;;;;5063011;28;20115;-62
2024/02/04 04:23:17;;;;;;;18.38;5.22;;;16.10;99.90;;;;;;5059767;28;20516;-63
2024/02/04 04:25:44;;;;;;;15.90;4.10;;;16.20;99.90;;;;;;5060528;28;20541;-62
2024/02/04 04:28:10;;;;;;;14.75;4.18;;;16.20;99.90;;;;;;5058608;28;20120;-63
2024/02/04 04:30:37;;;;;;;21.58;3.90;;;16.20;99.90;;;;;;5058923;28;20073;-63
2024/02/04 04:33:03;;;;;;;16.50;4.03;;;16.20;99.90;;;;;;5059473;28;20069;-64
2024/02/04 04:35:30;;;;;;;13.07;3.70;;;16.20;99.90;;;;;;5058083;28;20198;-62
2024/02/04 04:37:56;;;;;;;12.35;3.67;;;16.20;99.90;;;;;;5060045;28;20092;-62
2024/02/04 04:40:23;;;;;;;10.43;2.55;;;16.10;99.90;;;;;;5059255;28;20085;-65
2024/02/04 04:42:50;;;;;;;12.95;2.67;;;16.10;99.90;;;;;;5058691;28;20081;-65
2024/02/04 04:45:16;;;;;;;7.60;2.53;;;16.00;99.90;;;;;;5059816;28;20127;-63
2024/02/04 04:47:43;;;;;;;7.43;2.10;;;16.00;99.90;;;;;;5056483;28;20135;-61
2024/02/04 04:50:09;;;;;;;8.25;1.95;;;16.00;99.90;;;;;;5059353;28;20470;-62
2024/02/04 04:52:36;;;;;;;8.95;1.85;;;16.00;99.90;;;;;;5058445;28;20069;-63
2024/02/04 04:55:03;;;;;;;12.38;1.90;;;16.00;99.90;;;;;;5057100;28;20073;-62
2024/02/04 04:57:29;;;;;;;15.48;2.10;;;16.00;99.90;;;;;;5059584;28;20547;-63
2024/02/04 04:59:58;;;;;;;9.98;3.55;;;16.00;99.90;;;;;;5059759;28;20082;-63
2024/02/04 05:02:25;;;;;;;16.38;4.65;;;16.10;99.90;;;;;;5057723;28;20080;-65
2024/02/04 05:04:51;;;;;;;14.70;4.63;;;16.10;99.90;;;;;;5059152;28;20107;-61
2024/02/04 05:07:18;;;;;;;12.65;5.15;;;16.20;99.90;;;;;;5058720;28;20076;-63
2024/02/04 05:09:45;;;;;;;44.03;19.25;;;16.20;99.90;;;;;;5057879;28;20086;-63
2024/02/04 05:12:11;;;;;;;57.83;25.33;;;16.20;99.90;;;;;;5058554;28;20069;-63
2024/02/04 05:14:38;;;;;;;44.95;19.35;;;16.20;99.90;;;;;;5058255;28;20081;-64
2024/02/04 05:17:05;;;;;;;14.70;5.38;;;16.20;99.90;;;;;;5059469;28;20073;-65
2024/02/04 05:19:32;;;;;;;10.40;3.75;;;16.20;99.90;;;;;;5060228;28;20139;-64
2024/02/04 05:21:59;;;;;;;10.85;3.58;;;16.20;99.90;;;;;;5059857;28;20077;-64
2024/02/04 05:24:25;;;;;;;16.95;6.35;;;16.10;99.90;;;;;;5063479;28;20077;-63
2024/02/04 05:26:52;;;;;;;17.35;3.97;;;16.20;99.90;;;;;;5062850;28;20073;-63
2024/02/04 05:29:18;;;;;;;18.77;4.68;;;16.20;99.90;;;;;;5065076;28;20184;-65
2024/02/04 05:31:45;;;;;;;14.43;4.68;;;16.20;99.90;;;;;;5063215;28;20076;-60
2024/02/04 05:34:12;;;;;;;11.02;3.05;;;16.20;99.90;;;;;;5063915;28;21129;-64
2024/02/04 05:36:38;;;;;;;13.23;3.75;;;16.20;99.90;;;;;;5063867;28;20073;-64
2024/02/04 05:39:12;;;;;;;11.52;3.72;;;16.20;99.90;;;;;;5063434;28;20081;-64
2024/02/04 05:41:39;;;;;;;13.40;3.75;;;16.20;99.90;;;;;;5062964;28;20073;-61
2024/02/04 05:44:08;;;;;;;11.18;3.10;;;16.20;99.90;;;;;;5063554;28;20101;-61
2024/02/04 05:46:38;;;;;;;14.63;2.80;;;16.20;99.90;;;;;;5064857;28;20111;-65
2024/02/04 05:49:05;;;;;;;8.80;3.38;;;16.20;99.90;;;;;;5062191;28;20107;-64
2024/02/04 05:51:33;;;;;;;16.38;3.15;;;16.20;99.90;;;;;;5062016;28;20084;-64
2024/02/04 05:53:59;;;;;;;11.15;2.80;;;16.10;99.90;;;;;;5059812;28;20074;-64
2024/02/04 05:56:26;;;;;;;8.20;2.50;;;16.10;99.90;;;;;;5062448;28;20078;-66
2024/02/04 05:58:52;;;;;;;13.85;2.63;;;16.10;99.90;;;;;;5063787;28;20104;-66
2024/02/04 06:01:19;;;;;;;7.43;2.35;;;16.10;99.90;;;;;;5063240;28;20556;-63
2024/02/04 06:03:45;;;;;;;10.82;2.75;;;16.10;99.90;;;;;;5062408;28;20086;-64
2024/02/04 06:06:16;;;;;;;13.60;3.33;;;16.10;99.90;;;;;;5061837;28;20077;-63
2024/02/04 06:08:43;;;;;;;7.57;3.03;;;16.10;99.90;;;;;;5061697;28;20142;-64
2024/02/04 06:11:16;;;;;;;12.82;3.75;;;16.10;99.90;;;;;;5061410;28;20211;-63
2024/02/04 06:13:44;;;;;;;14.85;3.33;;;16.00;99.90;;;;;;5061229;28;20125;-64
2024/02/04 06:16:14;;;;;;;12.77;4.00;;;16.00;99.90;;;;;;5060157;28;20081;-63
2024/02/04 06:18:40;;;;;;;10.13;3.65;;;16.10;99.90;;;;;;5061575;28;21744;-63
2024/02/04 06:21:08;;;;;;;13.50;3.22;;;16.00;99.90;;;;;;5061531;28;20073;-68
2024/02/04 06:23:34;;;;;;;12.40;3.72;;;16.00;99.90;;;;;;5061276;28;20099;-62
2024/02/04 06:26:01;;;;;;;25.05;3.72;;;16.00;99.90;;;;;;5062175;28;20085;-62
2024/02/04 06:28:28;;;;;;;14.52;3.83;;;16.00;99.90;;;;;;5063023;28;20617;-60
2024/02/04 06:30:54;;;;;;;14.25;3.55;;;16.00;99.90;;;;;;5062723;28;20556;-61
2024/02/04 06:33:23;;;;;;;13.60;3.28;;;16.00;99.90;;;;;;5059779;28;20524;-61
2024/02/04 06:35:49;;;;;;;13.02;4.30;;;16.00;99.90;;;;;;5061939;28;20118;-61
2024/02/04 06:38:16;;;;;;;15.95;4.80;;;16.00;99.90;;;;;;5062769;28;20152;-60
2024/02/04 06:40:42;;;;;;;13.45;4.65;;;16.00;99.90;;;;;;5061856;28;20124;-61
2024/02/04 06:43:09;;;;;;;11.05;3.95;;;16.00;99.90;;;;;;5059792;28;20100;-61
2024/02/04 06:45:35;;;;;;;11.57;3.58;;;16.00;99.90;;;;;;5062129;28;20155;-61
2024/02/04 06:48:02;;;;;;;7.68;2.40;;;16.00;99.90;;;;;;5060114;28;20611;-61
2024/02/04 06:50:29;;;;;;;8.55;2.10;;;16.00;99.90;;;;;;5064171;28;20096;-61
2024/02/04 06:52:55;;;;;;;6.32;2.67;;;16.00;99.90;;;;;;5060343;28;20081;-61
2024/02/04 06:55:22;;;;;;;7.78;2.95;;;16.00;99.90;;;;;;5060942;28;20073;-62
2024/02/04 06:57:48;;;;;;;7.15;2.85;;;16.00;99.90;;;;;;5064549;28;20088;-61
2024/02/04 07:00:15;;;;;;;6.57;1.73;;;16.00;99.90;;;;;;5063098;28;20069;-64
2024/02/04 07:02:42;;;;;;;8.35;2.33;;;15.90;99.90;;;;;;5060760;28;20084;-61
2024/02/04 07:05:10;;;;;;;13.02;2.45;;;16.00;99.90;;;;;;5063947;28;20073;-63
2024/02/04 07:07:37;;;;;;;9.30;2.00;;;16.00;99.90;;;;;;5061065;28;20459;-62
2024/02/04 07:10:03;;;;;;;10.88;2.42;;;15.90;99.90;;;;;;5061169;28;20218;-62
2024/02/04 07:12:30;;;;;;;14.30;2.47;;;15.90;99.90;;;;;;5062314;28;20084;-63
2024/02/04 07:14:56;;;;;;;6.82;2.38;;;15.90;99.90;;;;;;5060208;28;20534;-62
2024/02/04 07:17:23;;;;;;;13.45;4.85;;;16.00;99.90;;;;;;5062186;28;20077;-62
2024/02/04 07:19:49;;;;;;;15.55;3.05;;;16.00;99.90;;;;;;5066401;28;20073;-62
2024/02/04 07:22:16;;;;;;;7.13;2.50;;;16.00;99.90;;;;;;5062442;28;20091;-63
2024/02/04 07:24:42;;;;;;;9.88;2.53;;;16.00;99.90;;;;;;5063421;28;20081;-64
2024/02/04 07:27:09;;;;;;;8.68;2.78;;;16.00;99.90;;;;;;5058541;28;20077;-61
2024/02/04 07:29:35;;;;;;;8.93;2.30;;;16.00;99.90;;;;;;5065081;28;20140;-63
2024/02/04 07:32:02;;;;;;;14.80;3.00;;;15.90;99.90;;;;;;5060374;28;20127;-62
2024/02/04 07:34:28;;;;;;;15.65;2.33;;;15.90;99.90;;;;;;5059357;28;20084;-62
2024/02/04 07:36:55;;;;;;;10.52;2.92;;;16.00;99.90;;;;;;5061008;28;20069;-61
2024/02/04 07:39:21;;;;;;;9.48;3.25;;;16.00;99.90;;;;;;5063444;28;20119;-61
2024/02/04 07:41:47;;;;;;;10.00;2.92;;;15.90;99.90;;;;;;5063044;28;20069;-62
2024/02/04 07:44:15;;;;;;;8.18;3.35;;;15.90;99.90;;;;;;5058336;28;20381;-62
2024/02/04 07:46:42;;;;;;;9.57;2.63;;;15.90;99.90;;;;;;5061757;28;20151;-62
2024/02/04 07:49:08;;;;;;;13.50;2.92;;;15.90;99.90;;;;;;5060203;28;20211;-62
2024/02/04 07:51:36;;;;;;;10.60;2.78;;;15.90;99.90;;;;;;5059882;28;20074;-62
2024/02/04 07:54:05;;;;;;;13.68;2.90;;;15.90;99.90;;;;;;5060358;28;20094;-62
2024/02/04 07:56:31;;;;;;;10.77;2.70;;;15.80;99.90;;;;;;5059888;28;20123;-62
2024/02/04 07:58:58;;;;;;;12.07;3.22;;;15.80;99.90;;;;;;5061321;28;20080;-61
2024/02/04 08:01:24;;;;;;;11.23;3.22;;;15.80;99.90;;;;;;5061379;28;20074;-63
2024/02/04 08:03:51;;;;;;;14.18;3.50;;;15.80;99.90;;;;;;5060333;28;20105;-61
2024/02/04 08:06:17;;;;;;;12.05;3.13;;;15.80;99.90;;;;;;5058873;28;20529;-62
2024/02/04 08:08:44;;;;;;;9.32;3.60;;;15.80;99.90;;;;;;5060458;28;20105;-62
2024/02/04 08:11:15;;;;;;;9.00;5.18;;;15.80;99.90;;;;;;5062227;28;20116;-61
2024/02/04 08:13:42;;;;;;;12.77;5.40;;;15.80;99.90;;;;;;5059057;28;20073;-61
2024/02/04 08:16:08;;;;;;;15.30;5.50;;;15.80;99.90;;;;;;5058557;28;20505;-62
2024/02/04 08:18:35;;;;;;;13.40;4.47;;;15.80;99.90;;;;;;5059584;28;20072;-62
2024/02/04 08:21:01;;;;;;;7.30;3.20;;;15.90;99.90;;;;;;5058887;28;20077;-62
2024/02/04 08:23:28;;;;;;;19.10;2.72;;;15.90;99.90;;;;;;5060894;28;20480;-62
2024/02/04 08:25:56;;;;;;;8.93;2.42;;;15.90;99.90;;;;;;5059258;28;20077;-63
2024/02/04 08:28:25;;;;;;;13.43;2.25;;;15.80;99.90;;;;;;5060197;28;20123;-62
2024/02/04 08:30:52;;;;;;;12.35;2.20;;;15.80;99.90;;;;;;5060144;28;20085;-62
2024/02/04 08:33:18;;;;;;;21.45;2.67;;;15.80;99.90;;;;;;5059714;28;20479;-62
2024/02/04 08:35:45;;;;;;;8.50;2.30;;;15.80;99.90;;;;;;5062558;28;20964;-62
2024/02/04 08:38:11;;;;;;;7.70;3.03;;;15.80;99.90;;;;;;5058462;28;20090;-62
2024/02/04 08:40:38;;;;;;;10.23;2.45;;;15.80;99.90;;;;;;5059556;28;20525;-63
2024/02/04 08:43:04;;;;;;;5.95;1.95;;;15.80;99.90;;;;;;5053837;28;20065;-62
2024/02/04 08:45:31;;;;;;;9.45;2.35;;;15.80;99.90;;;;;;5061624;28;20212;-63
2024/02/04 08:47:58;;;;;;;6.40;2.05;;;15.80;99.90;;;;;;5061715;28;20101;-63
2024/02/04 08:50:24;;;;;;;10.63;2.67;;;15.80;99.90;;;;;;5059902;28;20188;-62
2024/02/04 08:52:51;;;;;;;9.23;2.22;;;15.70;99.90;;;;;;5062145;28;20184;-64
2024/02/04 08:55:17;;;;;;;6.15;2.20;;;15.70;99.90;;;;;;5062411;28;20158;-63
2024/02/04 08:57:44;;;;;;;9.23;2.50;;;15.70;99.90;;;;;;5066221;28;20089;-62
2024/02/04 09:00:11;;;;;;;10.30;2.72;;;15.70;99.90;;;;;;5063779;28;20069;-62
2024/02/04 09:02:38;;;;;;;12.95;3.40;;;15.70;99.90;;;;;;5065488;28;20996;-63
2024/02/04 09:05:05;;;;;;;14.55;3.65;;;15.70;99.90;;;;;;5068795;28;20141;-63
2024/02/04 09:07:32;;;;;;;8.25;3.33;;;15.80;99.90;;;;;;5067171;28;20080;-62
2024/02/04 09:09:58;;;;;;;9.95;2.97;;;15.80;99.90;;;;;;5067470;28;20081;-62
2024/02/04 09:12:25;;;;;;;9.95;2.97;;;15.80;99.90;;;;;;5067322;28;20146;-62
2024/02/04 09:14:51;;;;;;;10.20;2.90;;;15.80;99.90;;;;;;5065576;28;20081;-61
2024/02/04 09:17:17;;;;;;;7.65;2.80;;;15.80;99.90;;;;;;5063966;28;20085;-63
2024/02/04 09:19:44;;;;;;;13.10;3.00;;;15.80;99.90;;;;;;5067497;28;20626;-62
2024/02/04 09:22:10;;;;;;;8.20;3.30;;;15.80;99.90;;;;;;5069276;28;20069;-63
2024/02/04 09:24:37;;;;;;;10.80;3.53;;;15.90;99.90;;;;;;5067855;28;20501;-63
2024/02/04 09:27:04;;;;;;;10.85;3.30;;;15.80;99.90;;;;;;5061699;28;20469;-62
2024/02/04 09:29:30;;;;;;;5.60;3.13;;;15.80;99.90;;;;;;5065138;28;20191;-62
2024/02/04 09:31:57;;;;;;;10.75;3.50;;;15.80;99.90;;;;;;5066619;28;20085;-62
2024/02/04 09:34:23;;;;;;;13.77;4.13;;;15.70;99.90;;;;;;5069652;28;20075;-62
2024/02/04 09:36:50;;;;;;;8.70;4.00;;;15.70;99.90;;;;;;5066461;28;20065;-61
2024/02/04 09:39:17;;;;;;;15.88;3.92;;;15.70;99.90;;;;;;5064697;28;20084;-61
2024/02/04 09:41:44;;;;;;;12.98;4.32;;;15.70;99.90;;;;;;5061339;28;20069;-61
2024/02/04 09:44:12;;;;;;;13.73;3.85;;;15.80;99.90;;;;;;5064575;28;20080;-62
2024/02/04 09:46:38;;;;;;;13.20;4.20;;;15.70;99.90;;;;;;5066781;28;20147;-61
2024/02/04 09:49:05;;;;;;;16.50;4.43;;;15.70;99.90;;;;;;5066861;28;20105;-62
2024/02/04 09:51:33;;;;;;;13.70;4.05;;;15.60;99.90;;;;;;5065204;28;20073;-62
2024/02/04 09:54:07;;;;;;;7.80;4.13;;;15.60;99.90;;;;;;5062743;28;20097;-61
2024/02/04 09:56:36;;;;;;;14.77;4.72;;;15.60;99.90;;;;;;5063421;28;20143;-62
2024/02/04 09:59:02;;;;;;;12.38;4.95;;;15.60;99.90;;;;;;5065548;28;20464;-63
2024/02/04 10:01:30;;;;;;;14.57;8.35;;;15.60;99.90;;;;;;5068875;28;20069;-63
2024/02/04 10:03:56;;;;;;;16.13;7.35;;;15.60;99.90;;;;;;5064843;28;20073;-62
2024/02/04 10:06:23;;;;;;;11.35;6.40;;;15.60;99.90;;;;;;5062042;28;21661;-63
2024/02/04 10:08:49;;;;;;;9.57;5.13;;;15.70;99.90;;;;;;5060907;28;20173;-62
2024/02/04 10:11:16;;;;;;;14.68;5.43;;;15.60;99.90;;;;;;5064462;28;20070;-62
2024/02/04 10:13:49;;;;;;;12.15;5.00;;;15.60;99.90;;;;;;5062737;28;20894;-62
2024/02/04 10:16:17;;;;;;;15.63;5.15;;;15.50;99.90;;;;;;5066688;28;20459;-62
2024/02/04 10:18:49;;;;;;;16.23;4.75;;;15.40;99.90;;;;;;5062710;28;20081;-62
2024/02/04 10:21:25;;;;;;;14.68;4.28;;;15.40;99.90;;;;;;5064694;28;20127;-62
2024/02/04 10:23:52;;;;;;;14.27;5.07;;;15.20;99.90;;;;;;5062929;28;20065;-62
2024/02/04 10:26:21;;;;;;;13.68;4.55;;;15.20;99.90;;;;;;5060923;28;20327;-62
2024/02/04 10:28:49;;;;;;;14.05;5.32;;;15.20;99.90;;;;;;5063085;28;20093;-62
2024/02/04 10:31:15;;;;;;;13.77;6.22;;;15.10;99.90;;;;;;5065958;28;20096;-61
2024/02/04 10:33:42;;;;;;;17.52;7.05;;;15.10;99.90;;;;;;5063487;28;20069;-62
2024/02/04 10:36:08;;;;;;;14.68;6.80;;;15.10;99.90;;;;;;5064883;28;20077;-62
2024/02/04 10:38:35;;;;;;;19.77;7.78;;;15.10;99.90;;;;;;5058400;28;20116;-61
2024/02/04 10:41:02;;;;;;;15.52;7.57;;;15.10;99.90;;;;;;5063938;28;20081;-61
2024/02/04 10:43:33;;;;;;;19.15;7.88;;;15.00;99.90;;;;;;5062676;28;20082;-61
2024/02/04 10:46:07;;;;;;;19.58;8.20;;;15.00;99.90;;;;;;5061180;28;20163;-61
2024/02/04 10:48:42;;;;;;;15.60;7.97;;;14.90;99.90;;;;;;5063243;28;20191;-61
2024/02/04 10:51:15;;;;;;;18.65;7.75;;;14.80;99.90;;;;;;5065242;28;20080;-63
2024/02/04 10:53:43;;;;;;;15.63;7.20;;;14.90;99.90;;;;;;5063112;28;20073;-61
2024/02/04 10:56:17;;;;;;;18.80;8.07;;;14.80;99.90;;;;;;5060734;28;20077;-62
2024/02/04 10:58:44;;;;;;;17.23;7.63;;;14.70;99.90;;;;;;5063655;28;20084;-62
2024/02/04 11:01:12;;;;;;;16.98;7.22;;;14.70;99.90;;;;;;5066221;28;20069;-62
2024/02/04 11:03:40;;;;;;;14.20;6.78;;;14.70;99.90;;;;;;5062778;28;20574;-62
2024/02/04 11:06:09;;;;;;;17.75;7.60;;;14.60;99.90;;;;;;5065715;28;20077;-62
2024/02/04 11:08:37;;;;;;;15.50;8.27;;;14.60;99.90;;;;;;5063648;28;20101;-61
2024/02/04 11:11:03;;;;;;;18.88;8.00;;;14.60;99.90;;;;;;5062080;28;20436;-62
2024/02/04 11:13:31;;;;;;;14.45;6.20;;;14.70;99.90;;;;;;5066348;28;20612;-62
2024/02/04 11:16:01;;;;;;;13.13;5.13;;;14.60;99.90;;;;;;5063652;28;20080;-62
2024/02/04 11:18:58;;;;;;;13.15;4.75;;;14.60;99.90;;;;;;5062422;28;20158;-62
2024/02/04 11:21:31;;;;;;;12.63;4.28;;;14.50;99.90;;;;;;5066280;28;20077;-61
2024/02/04 11:23:57;;;;;;;18.95;4.78;;;14.50;99.90;;;;;;5056477;28;20150;-62
2024/02/04 11:26:25;;;;;;;11.85;4.10;;;14.50;99.90;;;;;;5062221;28;20102;-62
2024/02/04 11:28:52;;;;;;;9.13;3.35;;;14.50;99.90;;;;;;5061654;28;20183;-61
2024/02/04 11:31:19;;;;;;;10.45;3.50;;;14.50;99.90;;;;;;5062746;28;20123;-61
2024/02/04 11:33:46;;;;;;;9.15;3.50;;;14.50;99.90;;;;;;5062071;28;20520;-62
2024/02/04 11:36:18;;;;;;;6.03;3.33;;;14.40;99.90;;;;;;5064037;28;20096;-62
2024/02/04 11:38:49;;;;;;;12.10;3.05;;;14.40;99.90;;;;;;5062858;28;20084;-62
2024/02/04 11:41:27;;;;;;;14.95;3.40;;;14.40;99.90;;;;;;5064050;28;20421;-62
2024/02/04 11:43:59;;;;;;;7.30;3.35;;;14.30;99.90;;;;;;5062395;28;20073;-63
2024/02/04 11:46:32;;;;;;;10.60;3.15;;;14.30;99.90;;;;;;5062268;28;20116;-62
2024/02/04 11:48:59;;;;;;;9.05;3.90;;;14.20;99.90;;;;;;5063832;28;20097;-62
2024/02/04 11:51:26;;;;;;;7.78;3.25;;;14.20;99.90;;;;;;5061018;28;20126;-62
2024/02/04 11:53:53;;;;;;;6.07;3.38;;;14.20;99.90;;;;;;5061464;28;20073;-62
2024/02/04 11:56:19;;;;;;;9.85;3.70;;;14.20;99.90;;;;;;5061881;28;20104;-63
2024/02/04 11:58:47;;;;;;;10.23;3.72;;;14.20;99.90;;;;;;5063001;28;20164;-62
2024/02/04 12:01:13;;;;;;;10.30;4.10;;;14.20;99.90;;;;;;5062245;28;20073;-62
2024/02/04 12:03:40;;;;;;;7.25;3.70;;;14.10;99.90;;;;;;5063193;28;20062;-61
2024/02/04 12:06:08;;;;;;;8.75;3.53;;;14.00;99.90;;;;;;5061839;28;20073;-61
2024/02/04 12:08:35;;;;;;;8.63;4.80;;;13.90;99.90;;;;;;5064522;28;20469;-61
2024/02/04 12:11:02;;;;;;;8.30;3.72;;;13.80;99.90;;;;;;5061083;28;20077;-61
2024/02/04 12:13:32;;;;;;;7.40;3.55;;;13.80;99.90;;;;;;5061427;28;20077;-62
2024/02/04 12:15:58;;;;;;;7.50;3.72;;;13.80;99.90;;;;;;5058840;28;20076;-61
2024/02/04 12:18:25;;;;;;;9.38;4.40;;;13.70;99.90;;;;;;5063011;28;20073;-62
2024/02/04 12:20:52;;;;;;;12.40;4.57;;;13.70;99.90;;;;;;5061263;28;20116;-62
2024/02/04 12:23:20;;;;;;;9.85;5.10;;;13.70;99.90;;;;;;5064938;28;20104;-62
2024/02/04 12:25:47;;;;;;;16.70;6.90;;;13.60;99.90;;;;;;5062063;28;20077;-62
2024/02/04 12:28:15;;;;;;;21.73;9.07;;;13.60;99.90;;;;;;5061683;28;20255;-62
2024/02/04 12:30:52;;;;;;;27.63;10.52;;;13.50;99.90;;;;;;5058873;28;20080;-61
2024/02/04 12:33:18;;;;;;;30.65;13.05;;;13.50;99.90;;;;;;5061307;28;20077;-62
2024/02/04 12:35:51;;;;;;;30.95;14.57;;;13.50;99.90;;;;;;5063135;28;20077;-62
2024/02/04 12:38:17;;;;;;;31.35;15.18;;;13.40;99.90;;;;;;5061144;28;20076;-62
2024/02/04 12:40:44;;;;;;;33.97;16.88;;;13.40;99.90;;;;;;5064719;28;20085;-62